createdAt,value
2023-01-07T00:01:35.298Z,5.33
2023-01-07T00:04:05.576Z,5.17
2023-01-07T00:06:35.542Z,4.83
2023-01-07T00:09:05.295Z,6.77
2023-01-07T00:11:36.246Z,8.20
2023-01-07T00:14:06.820Z,7.00
2023-01-07T00:16:37.707Z,6.47
2023-01-07T00:19:08.850Z,5.20
2023-01-07T00:21:37.178Z,4.47
2023-01-07T00:24:07.226Z,4.27
2023-01-07T00:26:37.571Z,4.37
2023-01-07T00:29:07.512Z,4.37
2023-01-07T00:31:39.557Z,4.40
2023-01-07T00:34:09.307Z,4.07
2023-01-07T00:36:41.629Z,5.33
2023-01-07T00:39:14.152Z,5.87
2023-01-07T00:42:03.570Z,5.60
2023-01-07T00:44:32.530Z,5.17
2023-01-07T00:47:02.635Z,5.67
2023-01-07T00:49:31.073Z,5.90
2023-01-07T00:52:00.461Z,5.97
2023-01-07T00:54:28.911Z,5.63
2023-01-07T00:56:57.422Z,5.37
2023-01-07T00:59:25.882Z,6.23
2023-01-07T01:01:54.197Z,5.40
2023-01-07T01:04:24.046Z,5.23
2023-01-07T01:06:52.466Z,5.97
2023-01-07T01:09:22.521Z,7.80
2023-01-07T01:11:50.958Z,6.80
2023-01-07T01:14:19.412Z,6.47
2023-01-07T01:16:47.896Z,7.67
2023-01-07T01:19:16.616Z,6.73
2023-01-07T01:21:46.336Z,6.97
2023-01-07T01:24:14.991Z,7.03
2023-01-07T01:26:43.329Z,6.73
2023-01-07T01:29:11.798Z,6.47
2023-01-07T01:31:40.366Z,7.07
2023-01-07T01:34:09.511Z,6.90
2023-01-07T01:36:38.573Z,6.73
2023-01-07T01:39:08.496Z,6.63
2023-01-07T01:41:37.515Z,6.43
2023-01-07T01:44:44.134Z,6.10
2023-01-07T01:47:22.047Z,5.67
2023-01-07T01:49:56.048Z,5.70
2023-01-07T01:52:31.921Z,6.37
2023-01-07T01:55:03.101Z,6.27
2023-01-07T01:57:34.389Z,6.03
2023-01-07T02:00:06.256Z,6.00
2023-01-07T02:02:45.785Z,6.20
2023-01-07T02:05:15.363Z,6.63
2023-01-07T02:07:43.799Z,6.37
2023-01-07T02:10:21.262Z,6.33
2023-01-07T02:13:12.468Z,6.43
2023-01-07T02:15:52.163Z,6.43
2023-01-07T02:18:41.640Z,6.33
2023-01-07T02:21:25.280Z,6.03
2023-01-07T02:24:25.086Z,6.80
2023-01-07T02:27:11.681Z,6.17
2023-01-07T02:30:29.115Z,6.50
2023-01-07T02:33:23.175Z,6.13
2023-01-07T02:36:05.799Z,6.60
2023-01-07T02:38:43.945Z,6.93
2023-01-07T02:41:21.190Z,7.63
2023-01-07T02:43:55.725Z,7.90
2023-01-07T02:46:31.904Z,7.13
2023-01-07T02:49:05.766Z,6.87
2023-01-07T02:51:35.547Z,6.50
2023-01-07T02:54:05.284Z,7.20
2023-01-07T02:56:46.600Z,7.93
2023-01-07T02:59:37.992Z,7.87
2023-01-07T03:02:30.344Z,7.20
2023-01-07T03:05:13.414Z,6.67
2023-01-07T03:07:55.019Z,7.20
2023-01-07T03:10:31.879Z,6.73
2023-01-07T03:13:05.680Z,7.53
2023-01-07T03:15:40.529Z,8.47
2023-01-07T03:18:13.038Z,8.57
2023-01-07T03:20:45.807Z,7.60
2023-01-07T03:23:18.148Z,6.43
2023-01-07T03:25:49.539Z,7.07
2023-01-07T03:28:25.938Z,7.37
2023-01-07T03:30:57.929Z,7.90
2023-01-07T03:33:32.397Z,7.63
2023-01-07T03:36:07.182Z,8.17
2023-01-07T03:38:39.305Z,8.87
2023-01-07T03:41:08.589Z,8.03
2023-01-07T03:43:35.897Z,7.60
2023-01-07T03:46:04.809Z,7.30
2023-01-07T03:48:33.210Z,6.53
2023-01-07T03:51:03.235Z,6.63
2023-01-07T03:53:31.675Z,6.30
2023-01-07T03:56:00.009Z,6.40
2023-01-07T03:58:28.452Z,6.37
2023-01-07T04:00:57.022Z,6.67
2023-01-07T04:03:25.457Z,6.83
2023-01-07T04:05:53.821Z,6.57
2023-01-07T04:08:25.643Z,7.93
2023-01-07T04:10:54.115Z,7.67
2023-01-07T04:13:23.409Z,7.33
2023-01-07T04:15:52.526Z,6.90
2023-01-07T04:18:21.731Z,7.83
2023-01-07T04:20:50.598Z,7.23
2023-01-07T04:23:19.748Z,7.10
2023-01-07T04:25:52.232Z,6.67
2023-01-07T04:28:24.119Z,6.97
2023-01-07T04:30:52.851Z,6.63
2023-01-07T04:33:22.950Z,6.90
2023-01-07T04:35:51.629Z,7.63
2023-01-07T04:38:21.875Z,7.43
2023-01-07T04:40:51.715Z,7.03
2023-01-07T04:43:20.937Z,8.00
2023-01-07T04:45:49.758Z,8.43
2023-01-07T04:48:20.212Z,8.87
2023-01-07T04:50:52.492Z,9.53
2023-01-07T04:53:22.412Z,9.50
2023-01-07T04:55:54.729Z,8.80
2023-01-07T04:58:23.743Z,7.43
2023-01-07T05:00:55.499Z,7.23
2023-01-07T05:03:23.981Z,6.97
2023-01-07T05:05:53.095Z,8.07
2023-01-07T05:08:23.542Z,7.90
2023-01-07T05:10:54.261Z,7.20
2023-01-07T05:13:24.854Z,6.63
2023-01-07T05:15:53.622Z,7.23
2023-01-07T05:18:23.503Z,8.17
2023-01-07T05:20:53.311Z,8.60
2023-01-07T05:23:22.747Z,8.50
2023-01-07T05:25:53.511Z,7.90
2023-01-07T05:28:23.025Z,6.50
2023-01-07T05:30:51.380Z,6.87
2023-01-07T05:33:20.909Z,6.57
2023-01-07T05:35:49.901Z,6.37
2023-01-07T05:38:20.363Z,5.83
2023-01-07T05:40:50.263Z,6.37
2023-01-07T05:43:24.373Z,5.87
2023-01-07T05:45:52.918Z,6.00
2023-01-07T05:48:22.598Z,5.90
2023-01-07T05:50:51.000Z,6.63
2023-01-07T05:53:20.274Z,6.33
2023-01-07T05:55:49.350Z,7.77
2023-01-07T05:58:17.738Z,7.40
2023-01-07T06:00:47.547Z,6.83
2023-01-07T06:03:15.989Z,7.37
2023-01-07T06:05:44.292Z,7.93
2023-01-07T06:08:12.664Z,7.00
2023-01-07T06:10:41.576Z,6.47
2023-01-07T06:13:10.024Z,7.43
2023-01-07T06:15:38.436Z,7.10
2023-01-07T06:18:08.270Z,6.33
2023-01-07T06:20:36.648Z,7.30
2023-01-07T06:23:05.132Z,6.00
2023-01-07T06:25:33.528Z,6.97
2023-01-07T06:28:01.979Z,7.43
2023-01-07T06:30:30.346Z,6.13
2023-01-07T06:32:58.705Z,7.17
2023-01-07T06:35:28.781Z,7.57
2023-01-07T06:37:57.164Z,8.47
2023-01-07T06:40:25.903Z,7.50
2023-01-07T06:42:54.586Z,8.70
2023-01-07T06:45:22.996Z,8.87
2023-01-07T06:47:51.409Z,8.83
2023-01-07T06:50:19.835Z,8.30
2023-01-07T06:52:50.648Z,8.33
2023-01-07T06:55:19.105Z,9.70
2023-01-07T06:57:48.392Z,9.20
2023-01-07T07:00:17.153Z,11.87
2023-01-07T07:02:45.497Z,10.87
2023-01-07T07:05:14.070Z,11.60
2023-01-07T07:07:42.441Z,11.43
2023-01-07T07:10:13.225Z,12.07
2023-01-07T07:12:41.940Z,10.77
2023-01-07T07:15:11.012Z,12.07
2023-01-07T07:17:39.469Z,12.47
2023-01-07T07:20:08.883Z,11.90
2023-01-07T07:22:37.339Z,10.30
2023-01-07T07:25:06.069Z,12.43
2023-01-07T07:27:35.866Z,12.80
2023-01-07T07:30:04.928Z,13.83
2023-01-07T07:32:33.285Z,11.27
2023-01-07T07:35:01.615Z,10.00
2023-01-07T07:37:30.086Z,10.30
2023-01-07T07:39:58.429Z,11.03
2023-01-07T07:42:26.851Z,11.40
2023-01-07T07:44:56.690Z,12.50
2023-01-07T07:47:25.170Z,11.17
2023-01-07T07:49:53.654Z,13.13
2023-01-07T07:52:22.033Z,12.03
2023-01-07T07:54:50.387Z,13.13
2023-01-07T07:57:18.789Z,13.07
2023-01-07T07:59:47.114Z,13.43
2023-01-07T08:02:18.711Z,13.05
2023-01-07T08:04:47.137Z,14.67
2023-01-07T08:07:15.518Z,13.00
2023-01-07T08:10:01.113Z,12.67
2023-01-07T08:12:29.489Z,13.27
2023-01-07T08:14:57.855Z,13.03
2023-01-07T08:17:27.565Z,12.87
2023-01-07T08:19:55.879Z,12.73
2023-01-07T08:22:25.292Z,12.30
2023-01-07T08:24:53.690Z,11.97
2023-01-07T08:27:22.393Z,12.50
2023-01-07T08:29:50.781Z,13.53
2023-01-07T08:32:19.304Z,14.87
2023-01-07T08:34:49.357Z,12.67
2023-01-07T08:37:18.597Z,12.33
2023-01-07T08:39:46.976Z,12.33
2023-01-07T08:42:15.270Z,12.83
2023-01-07T08:44:44.106Z,14.17
2023-01-07T08:47:12.503Z,14.23
2023-01-07T08:49:40.903Z,12.27
2023-01-07T08:52:10.751Z,12.70
2023-01-07T08:54:39.572Z,10.80
2023-01-07T08:57:07.933Z,12.90
2023-01-07T08:59:38.794Z,12.80
2023-01-07T09:02:07.836Z,12.77
2023-01-07T09:04:36.183Z,12.80
2023-01-07T09:07:04.576Z,13.98
2023-01-07T09:09:34.290Z,13.47
2023-01-07T09:12:02.881Z,11.00
2023-01-07T09:14:31.221Z,12.37
2023-01-07T09:16:59.638Z,10.30
2023-01-07T09:19:28.057Z,10.47
2023-01-07T09:21:56.813Z,9.97
2023-01-07T09:24:25.106Z,9.87
2023-01-07T09:26:55.049Z,10.20
2023-01-07T09:29:23.337Z,10.03
2023-01-07T09:31:51.840Z,9.33
2023-01-07T09:34:20.409Z,8.73
2023-01-07T09:36:48.801Z,9.77
2023-01-07T09:39:17.155Z,9.50
2023-01-07T09:41:52.773Z,10.10
2023-01-07T09:44:34.795Z,10.80
2023-01-07T09:47:06.554Z,9.83
2023-01-07T09:49:35.078Z,10.40
2023-01-07T09:52:09.901Z,11.80
2023-01-07T09:54:39.693Z,9.37
2023-01-07T09:57:09.845Z,10.70
2023-01-07T09:59:39.560Z,9.73
2023-01-07T10:02:21.135Z,11.87
2023-01-07T10:04:58.973Z,11.00
2023-01-07T10:07:34.685Z,9.80
2023-01-07T10:10:13.815Z,10.27
2023-01-07T10:12:52.242Z,9.50
2023-01-07T10:15:36.924Z,8.97
2023-01-07T10:18:22.624Z,8.93
2023-01-07T10:21:00.581Z,9.13
2023-01-07T10:23:32.136Z,11.67
2023-01-07T10:26:02.536Z,10.97
2023-01-07T10:28:38.074Z,12.53
2023-01-07T10:31:16.522Z,11.63
2023-01-07T10:33:48.413Z,12.67
2023-01-07T10:36:24.119Z,10.37
2023-01-07T10:39:02.459Z,10.00
2023-01-07T10:41:43.509Z,10.10
2023-01-07T10:44:39.369Z,9.80
2023-01-07T10:47:18.329Z,9.07
2023-01-07T10:50:03.373Z,9.93
2023-01-07T10:52:41.871Z,10.30
2023-01-07T10:55:35.880Z,9.60
2023-01-07T10:58:04.471Z,8.53
2023-01-07T11:00:33.718Z,9.30
2023-01-07T11:03:03.606Z,8.03
2023-01-07T11:05:39.371Z,7.50
2023-01-07T11:08:15.089Z,6.97
2023-01-07T11:10:44.064Z,6.90
2023-01-07T11:13:17.034Z,7.20
2023-01-07T11:15:50.370Z,6.63
2023-01-07T11:18:24.775Z,7.47
2023-01-07T11:20:55.071Z,6.03
2023-01-07T11:23:31.136Z,6.90
2023-01-07T11:26:15.158Z,6.80
2023-01-07T11:28:51.676Z,6.10
2023-01-07T11:31:20.661Z,6.00
2023-01-07T11:34:01.903Z,5.50
2023-01-07T11:36:43.302Z,4.90
2023-01-07T11:39:13.233Z,4.90
2023-01-07T11:41:53.003Z,3.97
2023-01-07T11:44:21.578Z,5.20
2023-01-07T11:46:50.379Z,4.87
2023-01-07T11:49:26.787Z,5.60
2023-01-07T11:51:57.044Z,5.10
2023-01-07T11:54:27.186Z,5.20
2023-01-07T11:57:12.966Z,5.37
2023-01-07T11:59:41.405Z,5.33
2023-01-07T12:02:26.213Z,4.67
2023-01-07T12:05:20.183Z,3.93
2023-01-07T12:07:50.048Z,5.67
2023-01-07T12:10:31.114Z,4.67
2023-01-07T12:13:01.052Z,4.97
2023-01-07T12:15:32.219Z,4.80
2023-01-07T12:18:34.030Z,4.87
2023-01-07T12:21:40.571Z,4.60
2023-01-07T12:24:40.893Z,4.83
2023-01-07T12:27:20.160Z,4.27
2023-01-07T12:30:00.096Z,5.80
2023-01-07T12:32:41.363Z,5.77
2023-01-07T12:35:18.209Z,5.33
2023-01-07T12:37:53.826Z,5.30
2023-01-07T12:40:32.202Z,4.60
2023-01-07T12:43:06.583Z,5.10
2023-01-07T12:45:42.098Z,4.93
2023-01-07T12:48:20.751Z,5.17
2023-01-07T12:50:53.233Z,5.93
2023-01-07T12:53:33.049Z,4.97
2023-01-07T12:56:06.294Z,4.80
2023-01-07T12:58:45.399Z,5.73
2023-01-07T13:01:22.409Z,5.90
2023-01-07T13:04:04.761Z,5.23
2023-01-07T13:06:44.640Z,5.87
2023-01-07T13:09:25.695Z,5.03
2023-01-07T13:12:42.359Z,5.30
2023-01-07T13:15:20.109Z,4.60
2023-01-07T13:17:50.387Z,4.70
2023-01-07T13:20:29.900Z,5.13
2023-01-07T13:22:59.255Z,5.43
2023-01-07T13:25:45.363Z,4.93
2023-01-07T13:28:37.203Z,4.70
2023-01-07T13:31:17.729Z,4.60
2023-01-07T13:33:55.792Z,3.53
2023-01-07T13:36:38.228Z,2.90
2023-01-07T13:39:34.016Z,2.57
2023-01-07T13:42:27.987Z,3.13
2023-01-07T13:45:06.910Z,3.20
2023-01-07T13:47:44.929Z,2.97
2023-01-07T13:50:35.911Z,3.20
2023-01-07T13:53:06.599Z,3.20
2023-01-07T13:55:38.508Z,2.90
2023-01-07T13:58:47.480Z,3.03
2023-01-07T14:01:17.682Z,2.77
2023-01-07T14:03:50.039Z,2.67
2023-01-07T14:06:48.951Z,3.03
2023-01-07T14:09:39.368Z,2.60
2023-01-07T14:12:45.567Z,3.03
2023-01-07T14:15:51.436Z,2.30
2023-01-07T14:18:54.779Z,2.20
2023-01-07T14:21:54.168Z,1.90
2023-01-07T14:24:57.921Z,1.90
2023-01-07T14:27:42.075Z,2.50
2023-01-07T14:30:21.672Z,2.27
2023-01-07T14:33:00.652Z,2.30
2023-01-07T14:35:34.229Z,2.80
2023-01-07T14:38:03.007Z,2.47
2023-01-07T14:41:03.038Z,2.70
2023-01-07T14:44:22.468Z,2.10
2023-01-07T14:46:53.185Z,2.23
2023-01-07T14:49:50.771Z,2.10
2023-01-07T14:52:51.065Z,2.10
2023-01-07T14:55:43.495Z,1.80
2023-01-07T14:58:35.245Z,2.33
2023-01-07T15:01:30.689Z,2.03
2023-01-07T15:04:32.881Z,2.17
2023-01-07T15:07:04.871Z,1.90
2023-01-07T15:09:59.829Z,2.13
2023-01-07T15:12:48.977Z,2.00
2023-01-07T15:15:40.796Z,1.70
2023-01-07T15:18:10.253Z,1.97
2023-01-07T15:20:56.694Z,2.20
2023-01-07T15:23:31.894Z,2.80
2023-01-07T15:26:08.472Z,1.87
2023-01-07T15:28:48.430Z,2.03
2023-01-07T15:31:25.709Z,2.90
2023-01-07T15:34:10.809Z,2.17
2023-01-07T15:36:43.486Z,1.90
2023-01-07T15:39:21.731Z,1.97
2023-01-07T15:41:53.789Z,1.90
2023-01-07T15:44:29.071Z,1.90
2023-01-07T15:46:57.890Z,2.13
2023-01-07T15:49:28.001Z,2.13
2023-01-07T15:51:59.809Z,2.40
2023-01-07T15:54:33.079Z,2.10
2023-01-07T15:57:06.515Z,2.83
2023-01-07T15:59:38.366Z,2.27
2023-01-07T16:02:18.461Z,2.40
2023-01-07T16:04:49.406Z,2.17
2023-01-07T16:07:23.657Z,2.00
2023-01-07T16:09:54.327Z,2.03
2023-01-07T16:12:30.136Z,1.93
2023-01-07T16:14:59.854Z,2.27
2023-01-07T16:17:28.730Z,2.43
2023-01-07T16:20:20.099Z,2.93
2023-01-07T16:22:48.511Z,2.10
2023-01-07T16:25:26.725Z,2.10
2023-01-07T16:27:55.748Z,1.90
2023-01-07T16:30:24.912Z,2.37
2023-01-07T16:32:56.109Z,2.50
2023-01-07T16:35:32.099Z,2.13
2023-01-07T16:38:03.445Z,2.10
2023-01-07T16:40:37.653Z,2.20
2023-01-07T16:43:20.542Z,2.40
2023-01-07T16:46:10.575Z,2.70
2023-01-07T16:48:39.732Z,2.67
2023-01-07T16:51:36.678Z,2.57
2023-01-07T16:54:41.673Z,3.10
2023-01-07T16:57:31.345Z,2.77
2023-01-07T17:00:07.026Z,2.47
2023-01-07T17:02:40.573Z,3.80
2023-01-07T17:05:18.750Z,2.97
2023-01-07T17:07:53.611Z,3.13
2023-01-07T17:10:27.261Z,2.63
2023-01-07T17:13:02.938Z,2.13
2023-01-07T17:15:39.649Z,2.20
2023-01-07T17:18:30.050Z,2.43
2023-01-07T17:21:00.187Z,2.67
2023-01-07T17:23:45.883Z,2.50
2023-01-07T17:26:21.874Z,3.30
2023-01-07T17:28:54.086Z,2.80
2023-01-07T17:31:24.160Z,3.13
2023-01-07T17:33:53.440Z,2.70
2023-01-07T17:36:24.151Z,3.00
2023-01-07T17:38:54.086Z,2.90
2023-01-07T17:41:42.531Z,2.33
2023-01-07T17:44:14.566Z,3.40
2023-01-07T17:46:47.467Z,2.67
2023-01-07T17:49:17.098Z,2.10
2023-01-07T17:51:48.164Z,2.93
2023-01-07T17:54:22.202Z,2.93
2023-01-07T17:56:51.042Z,3.67
2023-01-07T17:59:22.996Z,3.53
2023-01-07T18:01:52.801Z,2.80
2023-01-07T18:04:21.636Z,3.53
2023-01-07T18:06:49.945Z,3.53
2023-01-07T18:09:18.350Z,2.00
2023-01-07T18:12:05.069Z,2.53
2023-01-07T18:14:34.985Z,2.17
2023-01-07T18:17:03.377Z,2.50
2023-01-07T18:19:31.861Z,2.40
2023-01-07T18:22:00.292Z,2.10
2023-01-07T18:24:28.604Z,2.07
2023-01-07T18:26:57.031Z,2.73
2023-01-07T18:29:26.853Z,2.37
2023-01-07T18:31:57.503Z,2.33
2023-01-07T18:34:26.218Z,2.00
2023-01-07T18:36:54.977Z,2.37
2023-01-07T18:39:23.692Z,2.20
2023-01-07T18:41:54.108Z,2.03
2023-01-07T18:44:24.392Z,2.00
2023-01-07T18:46:54.251Z,2.00
2023-01-07T18:49:24.372Z,2.93
2023-01-07T18:51:52.912Z,2.00
2023-01-07T18:54:21.900Z,2.07
2023-01-07T18:56:51.122Z,2.37
2023-01-07T18:59:19.740Z,2.80
2023-01-07T19:01:48.774Z,2.17
2023-01-07T19:04:17.441Z,2.30
2023-01-07T19:06:50.766Z,2.80
2023-01-07T19:09:19.874Z,3.53
2023-01-07T19:11:52.626Z,3.30
2023-01-07T19:14:21.300Z,3.60
2023-01-07T19:16:51.070Z,2.63
2023-01-07T19:19:19.712Z,3.33
2023-01-07T19:21:50.884Z,2.60
2023-01-07T19:24:19.527Z,2.80
2023-01-07T19:26:48.584Z,3.60
2023-01-07T19:29:17.816Z,3.63
2023-01-07T19:31:46.962Z,3.33
2023-01-07T19:34:17.431Z,3.80
2023-01-07T19:36:47.298Z,2.90
2023-01-07T19:39:18.999Z,3.80
2023-01-07T19:41:48.145Z,2.80
2023-01-07T19:44:17.680Z,3.13
2023-01-07T19:46:47.026Z,3.40
2023-01-07T19:49:15.548Z,4.57
2023-01-07T19:51:44.357Z,4.30
2023-01-07T19:54:16.571Z,4.00
2023-01-07T19:56:47.026Z,4.40
2023-01-07T19:59:15.621Z,4.67
2023-01-07T20:01:45.345Z,4.40
2023-01-07T20:04:13.725Z,4.63
2023-01-07T20:06:42.043Z,4.07
2023-01-07T20:09:11.674Z,5.57
2023-01-07T20:11:40.681Z,5.80
2023-01-07T20:14:10.746Z,5.70
2023-01-07T20:16:41.621Z,6.10
2023-01-07T20:19:12.445Z,5.00
2023-01-07T20:21:41.185Z,5.80
2023-01-07T20:24:10.318Z,7.33
2023-01-07T20:26:39.165Z,6.67
2023-01-07T20:29:07.501Z,6.50
2023-01-07T20:31:37.463Z,6.00
2023-01-07T20:34:05.934Z,5.80
2023-01-07T20:36:34.455Z,4.97
2023-01-07T20:39:05.935Z,5.17
2023-01-07T20:41:36.007Z,5.17
2023-01-07T20:44:06.324Z,6.30
2023-01-07T20:46:36.507Z,4.77
2023-01-07T20:49:04.909Z,5.23
2023-01-07T20:51:34.066Z,5.27
2023-01-07T20:54:02.509Z,5.43
2023-01-07T20:56:32.487Z,4.83
2023-01-07T20:59:02.386Z,5.37
2023-01-07T21:01:30.938Z,5.13
2023-01-07T21:04:01.940Z,6.77
2023-01-07T21:06:30.384Z,5.83
2023-01-07T21:08:58.695Z,5.87
2023-01-07T21:11:27.545Z,4.90
2023-01-07T21:13:56.544Z,8.07
2023-01-07T21:16:25.667Z,6.17
2023-01-07T21:18:54.144Z,6.47
2023-01-07T21:21:25.553Z,5.77
2023-01-07T21:23:54.830Z,7.77
2023-01-07T21:26:24.983Z,8.67
2023-01-07T21:28:56.220Z,6.63
2023-01-07T21:31:25.387Z,5.70
2023-01-07T21:33:56.557Z,5.30
2023-01-07T21:36:27.097Z,5.70
2023-01-07T21:38:57.163Z,8.63
2023-01-07T21:41:26.661Z,6.83
2023-01-07T21:43:55.632Z,5.50
2023-01-07T21:46:24.161Z,5.57
2023-01-07T21:48:53.028Z,5.43
2023-01-07T21:51:26.454Z,5.57
2023-01-07T21:53:56.695Z,6.00
2023-01-07T21:56:26.797Z,5.00
2023-01-07T21:58:55.302Z,4.50
2023-01-07T22:01:28.442Z,4.60
2023-01-07T22:03:58.948Z,4.50
2023-01-07T22:06:30.974Z,4.43
2023-01-07T22:09:00.676Z,4.67
2023-01-07T22:11:29.776Z,4.93
2023-01-07T22:13:59.883Z,4.40
2023-01-07T22:16:30.396Z,4.10
2023-01-07T22:18:59.234Z,4.57
2023-01-07T22:21:29.207Z,4.77
2023-01-07T22:23:57.581Z,4.30
2023-01-07T22:26:25.989Z,4.27
2023-01-07T22:28:56.161Z,4.90
2023-01-07T22:31:26.675Z,4.73
2023-01-07T22:33:55.462Z,5.20
2023-01-07T22:36:30.342Z,4.40
2023-01-07T22:39:03.979Z,5.43
2023-01-07T22:41:34.061Z,5.00
2023-01-07T22:44:05.517Z,5.10
2023-01-07T22:46:35.463Z,3.83
2023-01-07T22:49:03.917Z,4.47
2023-01-07T22:51:38.740Z,4.90
2023-01-07T22:54:09.494Z,5.03
2023-01-07T22:56:37.907Z,6.83
2023-01-07T22:59:06.275Z,10.77
2023-01-07T23:01:43.561Z,6.67
2023-01-07T23:04:18.612Z,5.43
2023-01-07T23:06:47.144Z,6.53
2023-01-07T23:09:16.816Z,6.43
2023-01-07T23:11:51.840Z,4.73
2023-01-07T23:14:22.760Z,5.50
2023-01-07T23:16:52.734Z,6.20
2023-01-07T23:19:22.490Z,5.33
2023-01-07T23:21:52.712Z,4.80
2023-01-07T23:24:23.764Z,4.90
2023-01-07T23:26:54.002Z,9.67
2023-01-07T23:29:22.835Z,10.07
2023-01-07T23:31:51.398Z,5.90
2023-01-07T23:34:19.816Z,6.03
2023-01-07T23:36:49.090Z,4.53
2023-01-07T23:39:17.654Z,4.77
2023-01-07T23:41:47.420Z,5.27
2023-01-07T23:44:17.434Z,4.17
2023-01-07T23:46:45.816Z,4.30
2023-01-07T23:49:14.197Z,4.80
2023-01-07T23:51:42.906Z,4.20
2023-01-07T23:54:11.521Z,4.20
2023-01-07T23:56:40.094Z,5.10
2023-01-07T23:59:10.111Z,4.80
